Time;durP1;ratioP1;P1;durP2;ratioP2;P2;SDS_P1;SDS_P2;PMS_P1;PMS_P2;Temp;Humidity;BMP_temperature;BMP_pressure;BME280_temperature;BME280_humidity;BME280_pressure;Samples;Min_cycle;Max_cycle;Signal;HPM_P1;HPM_P2
2023/04/08 00:01:41;;;;;;;;;;;;;;;28.85;22.89;101175.50;5098739;28;1914;-29
2023/04/08 00:04:08;;;;;;;;;;;;;;;28.92;23.17;101172.91;5098968;28;1121;-28
2023/04/08 00:06:34;;;;;;;;;;;;;;;29.27;22.70;101167.81;5099229;28;1086;-27
2023/04/08 00:08:59;;;;;;;;;;;;;;;29.34;22.60;101166.03;5099757;28;1142;-29
2023/04/08 00:11:25;;;;;;;;;;;;;;;28.53;23.66;101166.69;5093844;28;1134;-28
2023/04/08 00:13:51;;;;;;;;;;;;;;;28.71;23.42;101161.75;5087780;28;1035;-29
2023/04/08 00:16:16;;;;;;;;;;;;;;;29.01;22.96;101160.97;5098504;28;1161;-31
2023/04/08 00:18:42;;;;;;;;;;;;;;;29.34;22.61;101163.31;5099114;28;1206;-27
2023/04/08 00:21:08;;;;;;;;;;;;;;;29.02;22.95;101164.53;5098629;28;1913;-28
2023/04/08 00:23:33;;;;;;;;;;;;;;;28.63;22.91;101164.53;5098622;28;1209;-28
2023/04/08 00:25:59;;;;;;;;;;;;;;;29.07;22.82;101165.69;5098188;28;1051;-27
2023/04/08 00:28:25;;;;;;;;;;;;;;;29.26;22.61;101166.13;5089387;28;1097;-30
2023/04/08 00:30:51;;;;;;;;;;;;;;;29.18;22.41;101164.34;5081185;28;1306;-27
2023/04/08 00:33:17;;;;;;;;;;;;;;;29.28;22.54;101169.50;5098885;28;1106;-27
2023/04/08 00:35:43;;;;;;;;;;;;;;;28.81;23.16;101168.81;5080053;28;1149;-31
2023/04/08 00:38:08;;;;;;;;;;;;;;;28.30;23.65;101162.09;5098641;28;1011;-28
2023/04/08 00:40:34;;;;;;;;;;;;;;;28.63;23.32;101161.84;5096092;28;1209;-28
2023/04/08 00:43:00;;;;;;;;;;;;;;;29.11;22.82;101165.31;5087674;28;1902;-29
2023/04/08 00:45:25;;;;;;;;;;;;;;;28.90;22.83;101169.53;5098088;28;1204;-31
2023/04/08 00:47:51;;;;;;;;;;;;;;;28.83;22.96;101166.72;5079959;28;1131;-27
2023/04/08 00:50:17;;;;;;;;;;;;;;;28.70;23.01;101159.25;5079366;28;1142;-28
2023/04/08 00:52:43;;;;;;;;;;;;;;;28.80;23.10;101157.13;5089286;28;1039;-29
2023/04/08 00:55:08;;;;;;;;;;;;;;;29.49;22.18;101167.03;5075862;28;1142;-28
2023/04/08 00:57:34;;;;;;;;;;;;;;;28.93;22.57;101158.34;5098187;28;1237;-28
2023/04/08 01:00:00;;;;;;;;;;;;;;;29.14;22.41;101164.91;5084538;28;1121;-30
2023/04/08 01:02:27;;;;;;;;;;;;;;;28.72;23.18;101165.31;5079686;28;1914;-30
2023/04/08 01:05:01;;;;;;;;;;;;;;;28.82;23.14;101165.06;5066379;28;1095;-29
2023/04/08 01:07:27;;;;;;;;;;;;;;;29.11;22.69;101165.31;5080495;28;1031;-26
2023/04/08 01:09:54;;;;;;;;;;;;;;;28.82;22.65;101156.94;5062909;28;1075;-30
2023/04/08 01:12:21;;;;;;;;;;;;;;;29.10;22.46;101156.31;5079593;28;1856;-30
2023/04/08 01:14:47;;;;;;;;;;;;;;;29.02;22.75;101156.41;5075749;28;1568;-28
2023/04/08 01:17:13;;;;;;;;;;;;;;;29.18;22.76;101158.94;5059450;28;1283;-28
2023/04/08 01:19:39;;;;;;;;;;;;;;;29.15;22.41;101162.03;5079675;28;1101;-27
2023/04/08 01:22:22;;;;;;;;;;;;;;;29.26;22.56;101163.41;5097773;28;1910;-29
2023/04/08 01:24:49;;;;;;;;;;;;;;;28.82;23.10;101167.75;5079219;28;1294;-27
2023/04/08 01:27:14;;;;;;;;;;;;;;;28.91;22.97;101163.13;5079005;28;1035;-27
2023/04/08 01:29:40;;;;;;;;;;;;;;;29.26;22.75;101157.19;5079157;28;1166;-27
2023/04/08 01:32:06;;;;;;;;;;;;;;;28.81;22.54;101158.78;5078587;28;1138;-29
2023/04/08 01:34:32;;;;;;;;;;;;;;;28.22;24.00;101158.44;5097038;28;1145;-29
2023/04/08 01:36:57;;;;;;;;;;;;;;;28.85;23.21;101162.81;5097874;28;971;-30
2023/04/08 01:39:23;;;;;;;;;;;;;;;29.11;22.80;101158.03;5072986;28;1094;-29
2023/04/08 01:41:48;;;;;;;;;;;;;;;29.00;22.48;101155.75;5059158;28;1981;-27
2023/04/08 01:44:14;;;;;;;;;;;;;;;29.24;22.68;101148.38;5059636;28;1234;-27
2023/04/08 01:46:40;;;;;;;;;;;;;;;28.72;23.22;101149.94;5071946;28;1216;-29
2023/04/08 01:49:05;;;;;;;;;;;;;;;28.41;23.75;101150.03;5078913;28;1125;-31
2023/04/08 01:51:34;;;;;;;;;;;;;;;28.80;23.19;101150.84;5096858;28;1109;-29
2023/04/08 01:53:59;;;;;;;;;;;;;;;29.17;22.62;101149.16;5078260;28;1260;-28
2023/04/08 01:56:25;;;;;;;;;;;;;;;28.93;23.19;101151.06;5096754;28;1154;-32
2023/04/08 01:58:51;;;;;;;;;;;;;;;28.59;22.94;101153.25;5078887;28;1217;-29
2023/04/08 02:01:17;;;;;;;;;;;;;;;28.93;22.99;101150.22;5078508;28;1910;-30
2023/04/08 02:03:43;;;;;;;;;;;;;;;29.12;22.97;101145.31;5071567;28;951;-28
2023/04/08 02:06:09;;;;;;;;;;;;;;;29.32;22.56;101151.00;5058845;28;1232;-28
2023/04/08 02:08:37;;;;;;;;;;;;;;;29.07;22.77;101156.69;5078647;28;1068;-28
2023/04/08 02:11:03;;;;;;;;;;;;;;;28.94;23.38;101160.03;5096544;28;1233;-28
2023/04/08 02:13:29;;;;;;;;;;;;;;;28.56;23.64;101169.03;5064906;28;1218;-28
2023/04/08 02:15:56;;;;;;;;;;;;;;;28.58;23.66;101164.25;5078067;28;1285;-28
2023/04/08 02:18:24;;;;;;;;;;;;;;;29.01;22.89;101168.28;5096522;28;1277;-29
2023/04/08 02:20:51;;;;;;;;;;;;;;;29.01;22.98;101173.69;5078433;28;1910;-29
2023/04/08 02:23:20;;;;;;;;;;;;;;;28.79;23.12;101171.69;5072179;28;1000;-29
2023/04/08 02:25:46;;;;;;;;;;;;;;;29.01;22.94;101176.41;5076130;28;1098;-28
2023/04/08 02:28:11;;;;;;;;;;;;;;;28.27;23.82;101182.25;5078484;28;897;-30
2023/04/08 02:30:41;;;;;;;;;;;;;;;29.28;22.80;101187.63;5095875;28;1098;-30
2023/04/08 02:33:07;;;;;;;;;;;;;;;28.93;22.40;101185.41;5096597;28;1121;-29
2023/04/08 02:35:33;;;;;;;;;;;;;;;28.98;22.75;101182.22;5061502;28;1154;-27
2023/04/08 02:37:58;;;;;;;;;;;;;;;28.67;23.46;101179.41;5078393;28;1004;-27
2023/04/08 02:40:30;;;;;;;;;;;;;;;28.89;23.22;101181.41;5078102;28;1107;-27
2023/04/08 02:42:56;;;;;;;;;;;;;;;29.08;22.86;101177.34;5084242;28;1906;-29
2023/04/08 02:45:30;;;;;;;;;;;;;;;28.94;22.92;101176.28;5077291;28;1153;-29
2023/04/08 02:47:55;;;;;;;;;;;;;;;28.55;23.53;101183.56;5096412;28;1109;-33
2023/04/08 02:50:21;;;;;;;;;;;;;;;28.91;23.46;101182.88;5086043;28;1229;-28
2023/04/08 02:52:47;;;;;;;;;;;;;;;29.21;22.96;101196.50;5093523;28;1161;-29
2023/04/08 02:55:12;;;;;;;;;;;;;;;29.17;22.87;101188.94;5062692;28;1262;-26
2023/04/08 02:57:38;;;;;;;;;;;;;;;28.98;22.67;101185.72;5076270;28;1225;-27
2023/04/08 03:00:04;;;;;;;;;;;;;;;28.17;23.71;101187.03;5091556;28;1047;-27
2023/04/08 03:02:30;;;;;;;;;;;;;;;27.75;24.07;101190.00;5087493;28;1909;-27
2023/04/08 03:04:55;;;;;;;;;;;;;;;27.37;24.79;101196.03;5089776;28;1060;-27
2023/04/08 03:07:21;;;;;;;;;;;;;;;28.18;23.86;101194.13;5084866;28;1067;-30
2023/04/08 03:09:47;;;;;;;;;;;;;;;28.67;22.91;101197.50;5095953;28;1233;-28
2023/04/08 03:12:12;;;;;;;;;;;;;;;28.81;22.55;101199.41;5095588;28;1352;-29
2023/04/08 03:14:38;;;;;;;;;;;;;;;29.05;22.36;101193.97;5095529;28;1273;-29
2023/04/08 03:17:03;;;;;;;;;;;;;;;28.06;23.67;101191.84;5081676;28;1297;-28
2023/04/08 03:19:29;;;;;;;;;;;;;;;27.67;24.15;101192.69;5075273;28;1261;-27
2023/04/08 03:21:55;;;;;;;;;;;;;;;27.25;24.33;101198.25;5075621;28;1910;-29
2023/04/08 03:24:20;;;;;;;;;;;;;;;27.84;23.78;101196.22;5075719;28;1313;-27
2023/04/08 03:26:46;;;;;;;;;;;;;;;28.33;23.13;101195.06;5075887;28;1292;-29
2023/04/08 03:29:11;;;;;;;;;;;;;;;28.39;23.15;101196.22;5095714;28;1194;-27
2023/04/08 03:31:37;;;;;;;;;;;;;;;28.68;22.87;101201.88;5100100;28;1058;-27
2023/04/08 03:34:02;;;;;;;;;;;;;;;28.06;23.42;101205.34;5099901;28;1332;-27
2023/04/08 03:36:28;;;;;;;;;;;;;;;27.76;23.90;101205.19;5099965;28;1059;-27
2023/04/08 03:38:54;;;;;;;;;;;;;;;27.20;24.54;101209.59;5100040;28;1426;-31
2023/04/08 03:41:20;;;;;;;;;;;;;;;27.17;24.66;101207.22;5088590;28;1913;-27
2023/04/08 03:43:45;;;;;;;;;;;;;;;28.25;23.27;101216.75;5092774;28;1075;-28
2023/04/08 03:46:11;;;;;;;;;;;;;;;27.72;23.56;101215.53;5090547;28;1094;-30
2023/04/08 03:48:36;;;;;;;;;;;;;;;24.87;20.46;101215.09;5082173;28;1205;-30
2023/04/08 03:51:02;;;;;;;;;;;;;;;25.80;22.02;101215.50;5079233;28;1320;-28
2023/04/08 03:53:28;;;;;;;;;;;;;;;26.72;20.80;101217.53;5083391;28;1078;-30
2023/04/08 03:55:54;;;;;;;;;;;;;;;27.02;20.46;101231.38;5085163;28;1083;-30
2023/04/08 03:58:20;;;;;;;;;;;;;;;27.14;20.44;101229.19;5099421;28;1051;-30
2023/04/08 04:00:45;;;;;;;;;;;;;;;26.50;20.62;101220.75;5098968;28;1027;-29
2023/04/08 04:03:11;;;;;;;;;;;;;;;26.45;20.49;101227.63;5099015;28;1967;-30
2023/04/08 04:05:38;;;;;;;;;;;;;;;26.90;19.60;101225.47;5098979;28;1031;-31
2023/04/08 04:08:03;;;;;;;;;;;;;;;26.55;19.62;101228.34;5098717;28;1213;-27
2023/04/08 04:10:29;;;;;;;;;;;;;;;27.72;18.50;101229.03;5099123;28;1207;-26
2023/04/08 04:12:54;;;;;;;;;;;;;;;28.15;17.78;101233.22;5099015;28;1162;-27
2023/04/08 04:15:20;;;;;;;;;;;;;;;28.40;17.41;101233.06;5098477;28;1150;-27
2023/04/08 04:17:51;;;;;;;;;;;;;;;28.81;17.25;101241.91;5083965;28;929;-30
2023/04/08 04:20:17;;;;;;;;;;;;;;;28.93;16.95;101240.41;5087529;28;1133;-26
2023/04/08 04:22:43;;;;;;;;;;;;;;;29.18;16.60;101236.66;5098096;28;1967;-29
2023/04/08 04:25:08;;;;;;;;;;;;;;;26.81;18.15;101248.09;5098877;28;1327;-26
2023/04/08 04:27:35;;;;;;;;;;;;;;;25.94;19.64;101237.47;5098298;28;1074;-29
2023/04/08 04:30:01;;;;;;;;;;;;;;;28.44;17.47;101238.97;5089016;28;932;-29
2023/04/08 04:32:26;;;;;;;;;;;;;;;28.68;17.39;101239.78;5095098;28;1059;-26
2023/04/08 04:34:53;;;;;;;;;;;;;;;28.87;17.07;101243.88;5098577;28;1007;-28
2023/04/08 04:37:19;;;;;;;;;;;;;;;28.84;17.13;101244.25;5097657;28;1158;-32
2023/04/08 04:39:45;;;;;;;;;;;;;;;28.91;17.21;101247.88;5097794;28;1178;-27
2023/04/08 04:42:10;;;;;;;;;;;;;;;26.39;19.25;101240.78;5084705;28;1905;-27
2023/04/08 04:44:36;;;;;;;;;;;;;;;25.91;19.88;101240.44;5098500;28;1047;-28
2023/04/08 04:47:01;;;;;;;;;;;;;;;28.21;17.96;101242.47;5098339;28;1015;-29
2023/04/08 04:49:27;;;;;;;;;;;;;;;28.53;17.70;101237.88;5098406;28;1125;-29
2023/04/08 04:51:52;;;;;;;;;;;;;;;28.56;17.68;101244.81;5098325;28;1225;-27
2023/04/08 04:54:18;;;;;;;;;;;;;;;28.65;17.50;101245.56;5089134;28;887;-29
2023/04/08 04:56:44;;;;;;;;;;;;;;;28.65;17.49;101248.28;5094164;28;1043;-30
2023/04/08 04:59:09;;;;;;;;;;;;;;;27.52;17.47;101252.91;5098247;28;1055;-27
2023/04/08 05:01:35;;;;;;;;;;;;;;;26.01;19.50;101248.41;5097693;28;1967;-27
2023/04/08 05:04:01;;;;;;;;;;;;;;;27.61;18.44;101253.72;5079959;28;1097;-27
2023/04/08 05:06:26;;;;;;;;;;;;;;;28.55;17.77;101257.50;5084957;28;1098;-27
2023/04/08 05:08:52;;;;;;;;;;;;;;;28.62;17.94;101256.75;5097718;28;1078;-27
2023/04/08 05:11:18;;;;;;;;;;;;;;;28.64;18.40;101257.44;5084363;28;1126;-30
2023/04/08 05:13:44;;;;;;;;;;;;;;;28.74;18.38;101266.16;5077721;28;1138;-30
2023/04/08 05:16:09;;;;;;;;;;;;;;;28.59;18.62;101269.63;5079258;28;1211;-33
2023/04/08 05:18:35;;;;;;;;;;;;;;;26.75;21.18;101257.69;5090742;28;995;-27
2023/04/08 05:21:01;;;;;;;;;;;;;;;26.97;20.79;101248.06;5090590;28;1981;-28
2023/04/08 05:23:26;;;;;;;;;;;;;;;28.80;19.12;101260.00;5083590;28;1063;-29
2023/04/08 05:25:52;;;;;;;;;;;;;;;26.83;21.60;101256.81;5091029;28;1107;-29
2023/04/08 05:28:17;;;;;;;;;;;;;;;26.09;22.67;101253.81;5096454;28;1211;-28
2023/04/08 05:30:47;;;;;;;;;;;;;;;27.48;21.18;101260.50;5079866;28;1031;-27
2023/04/08 05:33:13;;;;;;;;;;;;;;;28.51;19.85;101266.16;5077904;28;1139;-28
2023/04/08 05:35:38;;;;;;;;;;;;;;;28.63;19.75;101259.28;5076910;28;1143;-28
2023/04/08 05:38:04;;;;;;;;;;;;;;;28.81;19.94;101267.09;5094639;28;1114;-31
2023/04/08 05:40:29;;;;;;;;;;;;;;;28.53;19.91;101272.25;5096815;28;1074;-30
2023/04/08 05:42:55;;;;;;;;;;;;;;;28.93;19.71;101272.06;5096856;28;1941;-27
2023/04/08 05:45:20;;;;;;;;;;;;;;;26.93;22.23;101267.47;5097028;28;1112;-29
2023/04/08 05:47:46;;;;;;;;;;;;;;;27.86;21.39;101267.16;5097073;28;1196;-28
2023/04/08 05:50:12;;;;;;;;;;;;;;;28.78;20.30;101266.63;5096541;28;1097;-32
2023/04/08 05:52:41;;;;;;;;;;;;;;;29.09;19.97;101257.59;5096665;28;1016;-30
2023/04/08 05:55:07;;;;;;;;;;;;;;;29.22;19.81;101256.94;5097464;28;1263;-29
2023/04/08 05:57:32;;;;;;;;;;;;;;;26.89;22.37;101257.00;5096543;28;1145;-29
2023/04/08 05:59:58;;;;;;;;;;;;;;;26.97;22.71;101255.31;5097576;28;1137;-31
2023/04/08 06:02:24;;;;;;;;;;;;;;;28.43;21.20;101262.47;5096353;28;1906;-32
2023/04/08 06:04:49;;;;;;;;;;;;;;;28.96;20.62;101264.44;5096230;28;1201;-27
2023/04/08 06:07:15;;;;;;;;;;;;;;;29.09;20.08;101269.25;5079708;28;1066;-29
2023/04/08 06:09:41;;;;;;;;;;;;;;;29.26;19.98;101266.38;5087045;28;1043;-29
2023/04/08 06:12:06;;;;;;;;;;;;;;;29.33;20.03;101261.06;5096404;28;1170;-34
2023/04/08 06:14:32;;;;;;;;;;;;;;;27.49;21.95;101270.28;5096934;28;1225;-28
2023/04/08 06:16:57;;;;;;;;;;;;;;;27.01;22.75;101268.34;5096346;28;1035;-28
2023/04/08 06:19:23;;;;;;;;;;;;;;;28.80;20.92;101265.41;5096579;28;1138;-27
2023/04/08 06:21:50;;;;;;;;;;;;;;;28.52;20.89;101267.84;5096252;28;1980;-29
2023/04/08 06:24:16;;;;;;;;;;;;;;;26.96;23.06;101269.84;5096326;28;1350;-27
2023/04/08 06:26:41;;;;;;;;;;;;;;;27.45;22.42;101268.94;5096601;28;1142;-30
2023/04/08 06:29:07;;;;;;;;;;;;;;;28.53;21.33;101267.66;5094373;28;1043;-30
2023/04/08 06:31:33;;;;;;;;;;;;;;;28.89;20.71;101265.34;5076041;28;1500;-27
2023/04/08 06:33:58;;;;;;;;;;;;;;;28.98;20.55;101261.56;5091524;28;1230;-28
2023/04/08 06:36:24;;;;;;;;;;;;;;;27.94;21.50;101269.84;5093055;28;1082;-29
2023/04/08 06:38:50;;;;;;;;;;;;;;;26.73;23.28;101259.69;5091677;28;1098;-30
2023/04/08 06:41:15;;;;;;;;;;;;;;;28.18;21.61;101259.91;5093155;28;1909;-30
2023/04/08 06:43:41;;;;;;;;;;;;;;;29.03;20.55;101252.91;5095987;28;1303;-28
2023/04/08 06:46:06;;;;;;;;;;;;;;;28.08;21.37;101259.28;5096601;28;1055;-32
2023/04/08 06:48:32;;;;;;;;;;;;;;;26.70;23.19;101255.50;5096463;28;1062;-30
2023/04/08 06:50:58;;;;;;;;;;;;;;;27.37;22.88;101261.72;5096391;28;1002;-32
2023/04/08 06:53:24;;;;;;;;;;;;;;;28.40;21.41;101262.84;5095803;28;1018;-28
2023/04/08 06:55:50;;;;;;;;;;;;;;;28.88;20.68;101260.97;5094004;28;1320;-29
2023/04/08 06:58:15;;;;;;;;;;;;;;;29.19;20.53;101265.44;5095854;28;1058;-28
2023/04/08 07:00:41;;;;;;;;;;;;;;;27.20;22.52;101269.00;5096421;28;1114;-31
2023/04/08 07:03:07;;;;;;;;;;;;;;;26.55;23.28;101266.09;5085481;28;1914;-30
2023/04/08 07:05:34;;;;;;;;;;;;;;;28.03;22.15;101270.63;5099905;28;1074;-30
2023/04/08 07:08:00;;;;;;;;;;;;;;;28.73;20.83;101278.84;5087051;28;1099;-30
2023/04/08 07:10:25;;;;;;;;;;;;;;;29.05;20.41;101276.06;5099795;28;1170;-31
2023/04/08 07:12:51;;;;;;;;;;;;;;;29.23;20.04;101284.88;5099599;28;1337;-30
2023/04/08 07:15:17;;;;;;;;;;;;;;;26.80;22.96;101270.66;5099922;28;1090;-30
2023/04/08 07:17:42;;;;;;;;;;;;;;;26.68;23.40;101275.53;5099083;28;1053;-29
2023/04/08 07:20:08;;;;;;;;;;;;;;;28.33;21.56;101284.34;5087005;28;1016;-30
2023/04/08 07:22:34;;;;;;;;;;;;;;;28.89;20.88;101281.59;5099747;28;1980;-29
2023/04/08 07:24:59;;;;;;;;;;;;;;;28.87;20.51;101283.63;5099464;28;1122;-29
2023/04/08 07:27:25;;;;;;;;;;;;;;;26.58;23.03;101286.50;5099009;28;1111;-32
2023/04/08 07:29:54;;;;;;;;;;;;;;;26.75;23.17;101290.06;5086619;28;1059;-28
2023/04/08 07:32:19;;;;;;;;;;;;;;;28.29;21.44;101290.28;5099870;28;1069;-30
2023/04/08 07:34:45;;;;;;;;;;;;;;;28.83;20.83;101291.28;5099357;28;1058;-31
2023/04/08 07:37:10;;;;;;;;;;;;;;;29.17;20.38;101290.00;5099756;28;1138;-32
2023/04/08 07:39:36;;;;;;;;;;;;;;;27.27;22.37;101298.88;5099306;28;1113;-30
2023/04/08 07:42:02;;;;;;;;;;;;;;;26.44;23.55;101288.00;5098027;28;1898;-32
2023/04/08 07:44:27;;;;;;;;;;;;;;;27.92;21.85;101296.19;5087045;28;1098;-30
2023/04/08 07:46:53;;;;;;;;;;;;;;;28.82;20.71;101289.59;5099479;28;1128;-28
2023/04/08 07:49:18;;;;;;;;;;;;;;;29.15;20.07;101286.63;5099333;28;1063;-30
2023/04/08 07:51:44;;;;;;;;;;;;;;;26.89;22.01;101293.97;5099032;28;1090;-28
2023/04/08 07:54:11;;;;;;;;;;;;;;;26.33;23.17;101286.44;5099173;28;1062;-29
2023/04/08 07:56:39;;;;;;;;;;;;;;;27.72;21.81;101287.66;5084170;28;1062;-32
2023/04/08 07:59:05;;;;;;;;;;;;;;;26.33;22.93;101292.69;5087746;28;1228;-33
2023/04/08 08:01:33;;;;;;;;;;;;;;;25.99;23.29;101293.56;5085103;28;1971;-29
2023/04/08 08:03:59;;;;;;;;;;;;;;;27.68;21.87;101305.19;5098752;28;1063;-29
2023/04/08 08:06:26;;;;;;;;;;;;;;;28.31;20.92;101297.19;5095257;28;1450;-31
2023/04/08 08:08:52;;;;;;;;;;;;;;;28.64;20.86;101308.84;5079302;28;1423;-31
2023/04/08 08:11:17;;;;;;;;;;;;;;;29.07;20.04;101303.81;5088311;28;1015;-32
2023/04/08 08:13:43;;;;;;;;;;;;;;;27.96;21.36;101304.81;5091773;28;1048;-32
2023/04/08 08:16:10;;;;;;;;;;;;;;;26.68;22.92;101303.38;5098933;28;1115;-31
2023/04/08 08:18:39;;;;;;;;;;;;;;;27.98;21.64;101308.16;5086950;28;848;-34
2023/04/08 08:21:04;;;;;;;;;;;;;;;28.95;20.30;101299.81;5094128;28;1906;-30
2023/04/08 08:23:30;;;;;;;;;;;;;;;27.29;22.00;101304.97;5098516;28;1130;-28
2023/04/08 08:25:59;;;;;;;;;;;;;;;26.63;22.95;101303.03;5098508;28;1146;-28
2023/04/08 08:28:26;;;;;;;;;;;;;;;28.03;21.75;101307.66;5089338;28;1170;-28
2023/04/08 08:30:51;;;;;;;;;;;;;;;28.65;20.73;101310.53;5088918;28;1281;-30
2023/04/08 08:33:17;;;;;;;;;;;;;;;29.03;20.30;101307.09;5098208;28;1229;-31
2023/04/08 08:35:42;;;;;;;;;;;;;;;27.68;21.31;101307.91;5085701;28;1234;-29
2023/04/08 08:38:08;;;;;;;;;;;;;;;26.65;23.11;101317.22;5093085;28;1284;-31
2023/04/08 08:40:34;;;;;;;;;;;;;;;27.69;21.86;101312.34;5089891;28;1122;-30
2023/04/08 08:43:00;;;;;;;;;;;;;;;28.46;21.06;101318.13;5092716;28;1909;-33
2023/04/08 08:45:25;;;;;;;;;;;;;;;29.10;20.11;101310.72;5078378;28;1237;-30
2023/04/08 08:47:51;;;;;;;;;;;;;;;28.22;21.13;101315.34;5097107;28;1085;-29
2023/04/08 08:50:17;;;;;;;;;;;;;;;26.83;21.99;101318.91;5098433;28;1081;-29
2023/04/08 08:52:51;;;;;;;;;;;;;;;27.58;21.92;101314.34;5097976;28;1170;-28
2023/04/08 08:55:18;;;;;;;;;;;;;;;28.91;20.58;101322.88;5097584;28;1046;-31
2023/04/08 08:57:44;;;;;;;;;;;;;;;29.27;20.03;101327.69;5084262;28;1204;-29
2023/04/08 09:00:10;;;;;;;;;;;;;;;26.96;22.76;101326.53;5098134;28;999;-28
2023/04/08 09:02:35;;;;;;;;;;;;;;;26.73;22.79;101332.56;5097525;28;1894;-31
2023/04/08 09:05:01;;;;;;;;;;;;;;;28.41;20.90;101336.75;5097791;28;1014;-28
2023/04/08 09:07:27;;;;;;;;;;;;;;;28.77;20.21;101340.75;5091424;28;1222;-30
2023/04/08 09:09:53;;;;;;;;;;;;;;;29.16;19.51;101333.53;5090406;28;1043;-29
2023/04/08 09:12:19;;;;;;;;;;;;;;;27.46;21.42;101335.47;5098251;28;1123;-30
2023/04/08 09:14:45;;;;;;;;;;;;;;;26.56;22.63;101334.41;5097299;28;1053;-28
2023/04/08 09:17:11;;;;;;;;;;;;;;;28.09;21.11;101336.69;5089263;28;1090;-30
2023/04/08 09:19:36;;;;;;;;;;;;;;;29.02;20.37;101337.88;5090826;28;1213;-28
2023/04/08 09:22:11;;;;;;;;;;;;;;;27.02;22.16;101331.28;5084649;28;2288;-32
2023/04/08 09:24:37;;;;;;;;;;;;;;;26.41;23.07;101333.19;5097045;28;1062;-28
2023/04/08 09:27:05;;;;;;;;;;;;;;;27.67;21.27;101334.09;5097134;28;1193;-30
2023/04/08 09:29:32;;;;;;;;;;;;;;;26.32;23.25;101336.84;5095869;28;1081;-32
2023/04/08 09:31:58;;;;;;;;;;;;;;;26.11;24.10;101330.00;5080113;28;1546;-32
2023/04/08 09:34:24;;;;;;;;;;;;;;;27.26;22.62;101327.72;5095551;28;1016;-31
2023/04/08 09:36:50;;;;;;;;;;;;;;;27.61;21.89;101326.69;5090214;28;1019;-29
2023/04/08 09:39:16;;;;;;;;;;;;;;;28.39;21.25;101338.78;5096924;28;1107;-28
2023/04/08 09:41:42;;;;;;;;;;;;;;;28.99;20.40;101339.09;5097182;28;1968;-29
2023/04/08 09:44:08;;;;;;;;;;;;;;;26.81;22.43;101332.56;5097193;28;1066;-33
2023/04/08 09:46:42;;;;;;;;;;;;;;;26.60;22.84;101330.34;5097302;28;1070;-28
2023/04/08 09:49:08;;;;;;;;;;;;;;;26.48;23.00;101319.03;5091098;28;1298;-29
2023/04/08 09:51:44;;;;;;;;;;;;;;;26.16;23.29;101327.66;5083101;28;1151;-31
2023/04/08 09:54:13;;;;;;;;;;;;;;;26.75;23.15;101315.22;5097254;28;1277;-31
2023/04/08 09:56:59;;;;;;;;;;;;;;;27.78;21.67;101321.28;5079753;28;1431;-29
2023/04/08 09:59:26;;;;;;;;;;;;;;;26.41;23.35;101325.09;5083032;28;1966;-30
2023/04/08 10:01:52;;;;;;;;;;;;;;;26.22;23.64;101314.53;5075721;28;1910;-28
2023/04/08 10:04:19;;;;;;;;;;;;;;;27.39;22.49;101320.97;5090002;28;1206;-31
2023/04/08 10:06:50;;;;;;;;;;;;;;;26.83;22.92;101308.13;5080017;28;1186;-31
2023/04/08 10:09:15;;;;;;;;;;;;;;;26.25;24.16;101320.47;5063658;28;1036;-29
2023/04/08 10:11:41;;;;;;;;;;;;;;;26.83;23.58;101308.97;5083744;28;1026;-28
2023/04/08 10:14:08;;;;;;;;;;;;;;;27.70;22.33;101316.72;5096785;28;1106;-31
2023/04/08 10:16:34;;;;;;;;;;;;;;;26.53;23.53;101322.06;5096062;28;1182;-31
2023/04/08 10:19:00;;;;;;;;;;;;;;;26.22;24.14;101309.16;5096282;28;1102;-31
2023/04/08 10:21:36;;;;;;;;;;;;;;;27.30;22.97;101313.88;5090803;28;1910;-30
2023/04/08 10:24:05;;;;;;;;;;;;;;;27.82;22.41;101314.47;5089544;28;1229;-30
2023/04/08 10:26:32;;;;;;;;;;;;;;;26.41;23.11;101302.66;5076450;28;1047;-30
2023/04/08 10:29:29;;;;;;;;;;;;;;;26.24;23.76;101296.34;5090059;28;1024;-28
2023/04/08 10:31:56;;;;;;;;;;;;;;;27.58;22.25;101303.53;5084083;28;833;-28
2023/04/08 10:34:24;;;;;;;;;;;;;;;26.82;22.46;101298.34;5093547;28;1061;-29
2023/04/08 10:36:50;;;;;;;;;;;;;;;26.39;24.07;101293.91;5086592;28;1326;-28
2023/04/08 10:39:15;;;;;;;;;;;;;;;27.27;22.92;101304.28;5086707;28;1091;-30
2023/04/08 10:41:50;;;;;;;;;;;;;;;27.91;22.33;101312.59;5089617;28;1913;-30
2023/04/08 10:44:19;;;;;;;;;;;;;;;26.73;23.15;101303.72;5095895;28;1138;-29
2023/04/08 10:46:45;;;;;;;;;;;;;;;26.51;24.04;101311.44;5095573;28;1257;-30
2023/04/08 10:49:11;;;;;;;;;;;;;;;27.74;22.57;101312.66;5096134;28;1091;-30
2023/04/08 10:51:37;;;;;;;;;;;;;;;27.59;22.61;101312.50;5072890;28;1201;-30
2023/04/08 10:54:10;;;;;;;;;;;;;;;26.85;23.55;101314.19;5084470;28;955;-30
2023/04/08 10:56:35;;;;;;;;;;;;;;;26.62;23.60;101313.00;5095346;28;1058;-28
2023/04/08 10:59:02;;;;;;;;;;;;;;;27.92;22.36;101315.13;5092288;28;1167;-30
2023/04/08 11:01:28;;;;;;;;;;;;;;;26.95;23.18;101312.19;5095575;28;1905;-28
2023/04/08 11:03:54;;;;;;;;;;;;;;;26.65;23.70;101317.22;5077777;28;1167;-29
2023/04/08 11:06:20;;;;;;;;;;;;;;;27.65;22.58;101306.41;5085161;28;1011;-27
2023/04/08 11:08:46;;;;;;;;;;;;;;;27.93;22.25;101308.69;5091324;28;1188;-30
2023/04/08 11:11:11;;;;;;;;;;;;;;;27.17;23.02;101309.84;5088994;28;1411;-28
2023/04/08 11:13:44;;;;;;;;;;;;;;;26.96;22.77;101303.06;5095761;28;900;-30
2023/04/08 11:16:10;;;;;;;;;;;;;;;27.74;22.42;101297.25;5083206;28;1105;-29
2023/04/08 11:18:36;;;;;;;;;;;;;;;27.87;22.24;101307.56;5078271;28;1032;-29
2023/04/08 11:21:02;;;;;;;;;;;;;;;28.41;21.43;101301.56;5077397;28;897;-28
2023/04/08 11:23:28;;;;;;;;;;;;;;;29.20;20.54;101292.34;5077409;28;1909;-30
2023/04/08 11:25:53;;;;;;;;;;;;;;;27.39;22.49;101293.97;5095384;28;1101;-30
2023/04/08 11:28:19;;;;;;;;;;;;;;;27.23;22.63;101294.81;5078011;28;1102;-29
2023/04/08 11:30:46;;;;;;;;;;;;;;;28.67;21.10;101289.56;5095270;28;1131;-29
2023/04/08 11:33:12;;;;;;;;;;;;;;;29.36;20.41;101287.81;5094619;28;869;-28
2023/04/08 11:35:41;;;;;;;;;;;;;;;27.35;22.47;101287.19;5093976;28;1042;-31
2023/04/08 11:38:10;;;;;;;;;;;;;;;27.03;22.90;101289.75;5083873;28;1050;-33
2023/04/08 11:40:35;;;;;;;;;;;;;;;28.36;21.45;101283.19;5095182;28;1063;-29
2023/04/08 11:43:11;;;;;;;;;;;;;;;28.74;21.04;101276.97;5077061;28;1983;-29
2023/04/08 11:45:37;;;;;;;;;;;;;;;27.84;22.36;101283.53;5095268;28;1067;-29
2023/04/08 11:48:07;;;;;;;;;;;;;;;27.21;22.62;101276.06;5096532;28;1119;-29
2023/04/08 11:50:33;;;;;;;;;;;;;;;27.60;22.29;101273.63;5099282;28;1094;-30
2023/04/08 11:52:59;;;;;;;;;;;;;;;27.05;22.87;101274.25;5098438;28;1058;-29
2023/04/08 11:55:28;;;;;;;;;;;;;;;26.91;23.31;101278.44;5098433;28;1054;-30
2023/04/08 11:57:54;;;;;;;;;;;;;;;27.68;22.63;101270.94;5098808;28;1097;-30
2023/04/08 12:00:20;;;;;;;;;;;;;;;28.02;21.99;101268.09;5099195;28;1066;-31
2023/04/08 12:02:48;;;;;;;;;;;;;;;28.78;21.36;101264.75;5096572;28;1981;-28
2023/04/08 12:05:14;;;;;;;;;;;;;;;27.74;22.24;101272.13;5088309;28;1210;-29
2023/04/08 12:07:41;;;;;;;;;;;;;;;27.07;23.24;101263.28;5098599;28;1166;-31
2023/04/08 12:10:07;;;;;;;;;;;;;;;27.32;23.15;101266.78;5098809;28;1051;-28
2023/04/08 12:12:32;;;;;;;;;;;;;;;26.94;23.28;101263.75;5099007;28;1145;-29
2023/04/08 12:14:58;;;;;;;;;;;;;;;26.67;23.73;101265.78;5098205;28;1015;-30
2023/04/08 12:17:23;;;;;;;;;;;;;;;27.85;22.37;101260.06;5098801;28;1115;-29
2023/04/08 12:19:49;;;;;;;;;;;;;;;28.59;21.17;101261.50;5094281;28;1328;-30
2023/04/08 12:22:15;;;;;;;;;;;;;;;29.12;20.34;101259.06;5087189;28;1901;-32
2023/04/08 12:24:40;;;;;;;;;;;;;;;27.23;22.25;101257.00;5092584;28;1329;-27
2023/04/08 12:27:06;;;;;;;;;;;;;;;27.42;22.08;101252.25;5085830;28;877;-29
2023/04/08 12:29:32;;;;;;;;;;;;;;;27.09;22.74;101253.16;5090540;28;1250;-31
2023/04/08 12:31:57;;;;;;;;;;;;;;;26.83;23.27;101251.44;5098175;28;992;-33
2023/04/08 12:34:23;;;;;;;;;;;;;;;27.64;22.25;101250.66;5098453;28;1038;-28
2023/04/08 12:36:49;;;;;;;;;;;;;;;28.15;21.58;101233.22;5098296;28;1077;-28
2023/04/08 12:39:15;;;;;;;;;;;;;;;28.48;21.51;101230.31;5098218;28;1105;-29
2023/04/08 12:41:40;;;;;;;;;;;;;;;27.92;21.73;101230.47;5097986;28;1981;-32
2023/04/08 12:44:06;;;;;;;;;;;;;;;27.25;22.80;101238.78;5097641;28;1106;-29